sensor_id;sensor_type;location;lat;lon;timestamp;temperature;humidity
15364;DHT22;7781;49.690;6.472;2022-09-24T00:01:45;7.70;99.90
15364;DHT22;7781;49.690;6.472;2022-09-24T00:04:13;7.80;99.90
15364;DHT22;7781;49.690;6.472;2022-09-24T00:06:45;7.90;99.90
15364;DHT22;7781;49.690;6.472;2022-09-24T00:09:15;7.90;99.90
15364;DHT22;7781;49.690;6.472;2022-09-24T00:11:44;8.00;99.90
15364;DHT22;7781;49.690;6.472;2022-09-24T00:14:13;8.00;99.90
15364;DHT22;7781;49.690;6.472;2022-09-24T00:16:42;8.10;99.90
15364;DHT22;7781;49.690;6.472;2022-09-24T00:19:12;8.10;99.90
15364;DHT22;7781;49.690;6.472;2022-09-24T00:21:41;8.10;99.90
15364;DHT22;7781;49.690;6.472;2022-09-24T00:24:12;8.20;99.90
15364;DHT22;7781;49.690;6.472;2022-09-24T00:27:02;8.20;99.90
15364;DHT22;7781;49.690;6.472;2022-09-24T00:29:30;8.20;99.90
15364;DHT22;7781;49.690;6.472;2022-09-24T00:32:00;8.30;99.90
15364;DHT22;7781;49.690;6.472;2022-09-24T00:34:29;8.30;99.90
15364;DHT22;7781;49.690;6.472;2022-09-24T00:36:57;8.30;99.90
15364;DHT22;7781;49.690;6.472;2022-09-24T00:39:27;8.40;99.90
15364;DHT22;7781;49.690;6.472;2022-09-24T00:41:55;8.40;99.90
15364;DHT22;7781;49.690;6.472;2022-09-24T00:44:57;8.40;99.90
15364;DHT22;7781;49.690;6.472;2022-09-24T00:47:28;8.40;99.90
15364;DHT22;7781;49.690;6.472;2022-09-24T00:50:04;8.40;99.90
15364;DHT22;7781;49.690;6.472;2022-09-24T00:52:39;8.40;99.90
15364;DHT22;7781;49.690;6.472;2022-09-24T00:55:10;8.50;99.90
15364;DHT22;7781;49.690;6.472;2022-09-24T00:57:41;8.50;99.90
15364;DHT22;7781;49.690;6.472;2022-09-24T01:00:10;8.50;99.90
15364;DHT22;7781;49.690;6.472;2022-09-24T01:02:40;8.40;99.90
15364;DHT22;7781;49.690;6.472;2022-09-24T01:05:09;8.40;99.90
15364;DHT22;7781;49.690;6.472;2022-09-24T01:07:37;8.40;99.90
15364;DHT22;7781;49.690;6.472;2022-09-24T01:10:05;8.30;99.90
15364;DHT22;7781;49.690;6.472;2022-09-24T01:12:42;8.30;99.90
15364;DHT22;7781;49.690;6.472;2022-09-24T01:15:20;8.30;99.90
15364;DHT22;7781;49.690;6.472;2022-09-24T01:17:56;8.30;99.90
15364;DHT22;7781;49.690;6.472;2022-09-24T01:20:44;8.20;99.90
15364;DHT22;7781;49.690;6.472;2022-09-24T01:23:37;8.20;99.90
15364;DHT22;7781;49.690;6.472;2022-09-24T01:26:23;8.20;99.90
15364;DHT22;7781;49.690;6.472;2022-09-24T01:31:42;8.10;99.90
15364;DHT22;7781;49.690;6.472;2022-09-24T01:34:16;8.10;99.90
15364;DHT22;7781;49.690;6.472;2022-09-24T01:36:47;8.10;99.90
15364;DHT22;7781;49.690;6.472;2022-09-24T01:39:17;8.10;99.90
15364;DHT22;7781;49.690;6.472;2022-09-24T01:41:47;8.10;99.90
15364;DHT22;7781;49.690;6.472;2022-09-24T01:44:15;8.10;99.90
15364;DHT22;7781;49.690;6.472;2022-09-24T01:46:45;8.10;99.90
15364;DHT22;7781;49.690;6.472;2022-09-24T01:49:13;8.10;99.90
15364;DHT22;7781;49.690;6.472;2022-09-24T01:51:45;8.10;99.90
15364;DHT22;7781;49.690;6.472;2022-09-24T01:54:18;8.20;99.90
15364;DHT22;7781;49.690;6.472;2022-09-24T01:56:51;8.20;99.90
15364;DHT22;7781;49.690;6.472;2022-09-24T01:59:24;8.20;99.90
15364;DHT22;7781;49.690;6.472;2022-09-24T02:02:00;8.30;99.90
15364;DHT22;7781;49.690;6.472;2022-09-24T02:04:32;8.30;99.90
15364;DHT22;7781;49.690;6.472;2022-09-24T02:07:04;8.30;99.90
15364;DHT22;7781;49.690;6.472;2022-09-24T02:09:35;8.30;99.90
15364;DHT22;7781;49.690;6.472;2022-09-24T02:12:07;8.30;99.90
15364;DHT22;7781;49.690;6.472;2022-09-24T02:14:40;8.30;99.90
15364;DHT22;7781;49.690;6.472;2022-09-24T02:17:12;8.30;99.90
15364;DHT22;7781;49.690;6.472;2022-09-24T02:19:42;8.30;99.90
15364;DHT22;7781;49.690;6.472;2022-09-24T02:22:12;8.40;99.90
15364;DHT22;7781;49.690;6.472;2022-09-24T02:24:44;8.40;99.90
15364;DHT22;7781;49.690;6.472;2022-09-24T02:27:15;8.40;99.90
15364;DHT22;7781;49.690;6.472;2022-09-24T02:29:45;8.40;99.90
15364;DHT22;7781;49.690;6.472;2022-09-24T02:32:17;8.40;99.90
15364;DHT22;7781;49.690;6.472;2022-09-24T02:34:48;8.40;99.90
15364;DHT22;7781;49.690;6.472;2022-09-24T02:37:17;8.50;99.90
15364;DHT22;7781;49.690;6.472;2022-09-24T02:39:45;8.50;99.90
15364;DHT22;7781;49.690;6.472;2022-09-24T02:42:14;8.60;99.90
15364;DHT22;7781;49.690;6.472;2022-09-24T02:44:43;8.70;99.90
15364;DHT22;7781;49.690;6.472;2022-09-24T02:47:14;8.90;99.90
15364;DHT22;7781;49.690;6.472;2022-09-24T02:49:42;8.90;99.90
15364;DHT22;7781;49.690;6.472;2022-09-24T02:52:10;8.90;99.90
15364;DHT22;7781;49.690;6.472;2022-09-24T02:54:39;8.90;99.90
15364;DHT22;7781;49.690;6.472;2022-09-24T02:57:08;8.90;99.90
15364;DHT22;7781;49.690;6.472;2022-09-24T02:59:36;8.90;99.90
15364;DHT22;7781;49.690;6.472;2022-09-24T03:02:04;8.90;99.90
15364;DHT22;7781;49.690;6.472;2022-09-24T03:04:34;8.80;99.90
15364;DHT22;7781;49.690;6.472;2022-09-24T03:07:02;8.80;99.90
15364;DHT22;7781;49.690;6.472;2022-09-24T03:09:30;8.80;99.90
15364;DHT22;7781;49.690;6.472;2022-09-24T03:11:58;8.80;99.90
15364;DHT22;7781;49.690;6.472;2022-09-24T03:14:26;8.70;99.90
15364;DHT22;7781;49.690;6.472;2022-09-24T03:16:54;8.70;99.90
15364;DHT22;7781;49.690;6.472;2022-09-24T03:19:22;8.60;99.90
15364;DHT22;7781;49.690;6.472;2022-09-24T03:21:52;8.60;99.90
15364;DHT22;7781;49.690;6.472;2022-09-24T03:24:20;8.50;99.90
15364;DHT22;7781;49.690;6.472;2022-09-24T03:26:48;8.50;99.90
15364;DHT22;7781;49.690;6.472;2022-09-24T03:29:16;8.50;99.90
15364;DHT22;7781;49.690;6.472;2022-09-24T03:32:04;8.50;99.90
15364;DHT22;7781;49.690;6.472;2022-09-24T03:34:31;8.50;99.90
15364;DHT22;7781;49.690;6.472;2022-09-24T03:37:01;8.60;99.90
15364;DHT22;7781;49.690;6.472;2022-09-24T03:39:29;8.60;99.90
15364;DHT22;7781;49.690;6.472;2022-09-24T03:41:57;8.60;99.90
15364;DHT22;7781;49.690;6.472;2022-09-24T03:44:25;8.60;99.90
15364;DHT22;7781;49.690;6.472;2022-09-24T03:46:54;8.60;99.90
15364;DHT22;7781;49.690;6.472;2022-09-24T03:49:22;8.70;99.90
15364;DHT22;7781;49.690;6.472;2022-09-24T03:51:51;8.70;99.90
15364;DHT22;7781;49.690;6.472;2022-09-24T03:54:20;8.70;99.90
15364;DHT22;7781;49.690;6.472;2022-09-24T03:56:48;8.70;99.90
15364;DHT22;7781;49.690;6.472;2022-09-24T03:59:16;8.80;99.90
15364;DHT22;7781;49.690;6.472;2022-09-24T04:01:44;8.80;99.90
15364;DHT22;7781;49.690;6.472;2022-09-24T04:04:12;8.80;99.90
15364;DHT22;7781;49.690;6.472;2022-09-24T04:06:42;8.70;99.90
15364;DHT22;7781;49.690;6.472;2022-09-24T04:09:10;8.70;99.90
15364;DHT22;7781;49.690;6.472;2022-09-24T04:11:39;8.80;99.90
15364;DHT22;7781;49.690;6.472;2022-09-24T04:14:08;8.80;99.90
15364;DHT22;7781;49.690;6.472;2022-09-24T04:16:36;8.80;99.90
15364;DHT22;7781;49.690;6.472;2022-09-24T04:19:04;8.80;99.90
15364;DHT22;7781;49.690;6.472;2022-09-24T04:21:33;8.90;99.90
15364;DHT22;7781;49.690;6.472;2022-09-24T04:24:01;8.90;99.90
15364;DHT22;7781;49.690;6.472;2022-09-24T04:26:29;8.90;99.90
15364;DHT22;7781;49.690;6.472;2022-09-24T04:28:59;9.00;99.90
15364;DHT22;7781;49.690;6.472;2022-09-24T04:31:27;9.00;99.90
15364;DHT22;7781;49.690;6.472;2022-09-24T04:33:55;9.00;99.90
15364;DHT22;7781;49.690;6.472;2022-09-24T04:36:23;9.00;99.90
15364;DHT22;7781;49.690;6.472;2022-09-24T04:38:51;9.00;99.90
15364;DHT22;7781;49.690;6.472;2022-09-24T04:41:19;9.00;99.90
15364;DHT22;7781;49.690;6.472;2022-09-24T04:43:47;9.00;99.90
15364;DHT22;7781;49.690;6.472;2022-09-24T04:46:17;9.00;99.90
15364;DHT22;7781;49.690;6.472;2022-09-24T04:48:45;9.00;99.90
15364;DHT22;7781;49.690;6.472;2022-09-24T04:51:13;9.00;99.90
15364;DHT22;7781;49.690;6.472;2022-09-24T04:53:43;9.10;99.90
15364;DHT22;7781;49.690;6.472;2022-09-24T04:56:13;9.10;99.90
15364;DHT22;7781;49.690;6.472;2022-09-24T04:58:41;9.10;99.90
15364;DHT22;7781;49.690;6.472;2022-09-24T05:01:09;9.10;99.90
15364;DHT22;7781;49.690;6.472;2022-09-24T05:03:40;9.10;99.90
15364;DHT22;7781;49.690;6.472;2022-09-24T05:06:09;9.10;99.90
15364;DHT22;7781;49.690;6.472;2022-09-24T05:08:37;9.10;99.90
15364;DHT22;7781;49.690;6.472;2022-09-24T05:11:05;9.10;99.90
15364;DHT22;7781;49.690;6.472;2022-09-24T05:13:33;9.10;99.90
15364;DHT22;7781;49.690;6.472;2022-09-24T05:16:01;9.10;99.90
15364;DHT22;7781;49.690;6.472;2022-09-24T05:18:29;9.20;99.90
15364;DHT22;7781;49.690;6.472;2022-09-24T05:20:59;9.30;99.90
15364;DHT22;7781;49.690;6.472;2022-09-24T05:23:27;9.30;99.90
15364;DHT22;7781;49.690;6.472;2022-09-24T05:25:55;9.30;99.90
15364;DHT22;7781;49.690;6.472;2022-09-24T05:28:40;9.30;99.90
15364;DHT22;7781;49.690;6.472;2022-09-24T05:31:08;9.30;99.90
15364;DHT22;7781;49.690;6.472;2022-09-24T05:33:37;9.30;99.90
15364;DHT22;7781;49.690;6.472;2022-09-24T05:36:06;9.30;99.90
15364;DHT22;7781;49.690;6.472;2022-09-24T05:38:34;9.30;99.90
15364;DHT22;7781;49.690;6.472;2022-09-24T05:41:07;9.30;99.90
15364;DHT22;7781;49.690;6.472;2022-09-24T05:43:35;9.30;99.90
15364;DHT22;7781;49.690;6.472;2022-09-24T05:46:03;9.30;99.90
15364;DHT22;7781;49.690;6.472;2022-09-24T05:48:32;9.30;99.90
15364;DHT22;7781;49.690;6.472;2022-09-24T05:51:00;9.30;99.90
15364;DHT22;7781;49.690;6.472;2022-09-24T05:53:29;9.30;99.90
15364;DHT22;7781;49.690;6.472;2022-09-24T05:55:57;9.40;99.90
15364;DHT22;7781;49.690;6.472;2022-09-24T05:58:25;9.40;99.90
15364;DHT22;7781;49.690;6.472;2022-09-24T06:00:53;9.40;99.90
15364;DHT22;7781;49.690;6.472;2022-09-24T06:03:21;9.50;99.90
15364;DHT22;7781;49.690;6.472;2022-09-24T06:05:50;9.50;99.90
15364;DHT22;7781;49.690;6.472;2022-09-24T06:08:19;9.50;99.90
15364;DHT22;7781;49.690;6.472;2022-09-24T06:10:48;9.50;99.90
15364;DHT22;7781;49.690;6.472;2022-09-24T06:13:18;9.50;99.90
15364;DHT22;7781;49.690;6.472;2022-09-24T06:15:46;9.50;99.90
15364;DHT22;7781;49.690;6.472;2022-09-24T06:18:14;9.60;99.90
15364;DHT22;7781;49.690;6.472;2022-09-24T06:20:42;9.60;99.90
15364;DHT22;7781;49.690;6.472;2022-09-24T06:23:12;9.60;99.90
15364;DHT22;7781;49.690;6.472;2022-09-24T06:25:40;9.70;99.90
15364;DHT22;7781;49.690;6.472;2022-09-24T06:28:09;9.70;99.90
15364;DHT22;7781;49.690;6.472;2022-09-24T06:30:38;9.80;99.90
15364;DHT22;7781;49.690;6.472;2022-09-24T06:33:08;9.70;99.90
15364;DHT22;7781;49.690;6.472;2022-09-24T06:35:37;9.80;99.90
15364;DHT22;7781;49.690;6.472;2022-09-24T06:38:07;9.70;99.90
15364;DHT22;7781;49.690;6.472;2022-09-24T06:40:35;9.70;99.90
15364;DHT22;7781;49.690;6.472;2022-09-24T06:43:04;9.80;99.90
15364;DHT22;7781;49.690;6.472;2022-09-24T06:45:33;9.80;99.90
15364;DHT22;7781;49.690;6.472;2022-09-24T06:48:03;9.90;99.90
15364;DHT22;7781;49.690;6.472;2022-09-24T06:50:33;9.90;99.90
15364;DHT22;7781;49.690;6.472;2022-09-24T06:53:04;10.00;99.90
15364;DHT22;7781;49.690;6.472;2022-09-24T06:55:32;10.10;99.90
15364;DHT22;7781;49.690;6.472;2022-09-24T06:58:02;10.10;99.90
15364;DHT22;7781;49.690;6.472;2022-09-24T07:00:30;10.20;99.90
15364;DHT22;7781;49.690;6.472;2022-09-24T07:02:59;10.30;99.90
15364;DHT22;7781;49.690;6.472;2022-09-24T07:05:27;10.40;99.90
15364;DHT22;7781;49.690;6.472;2022-09-24T07:07:55;10.40;99.90
15364;DHT22;7781;49.690;6.472;2022-09-24T07:10:23;10.50;99.90
15364;DHT22;7781;49.690;6.472;2022-09-24T07:12:53;10.50;99.90
15364;DHT22;7781;49.690;6.472;2022-09-24T07:15:21;10.50;99.90
15364;DHT22;7781;49.690;6.472;2022-09-24T07:17:53;10.60;99.90
15364;DHT22;7781;49.690;6.472;2022-09-24T07:20:23;10.60;99.90
15364;DHT22;7781;49.690;6.472;2022-09-24T07:22:54;10.60;99.90
15364;DHT22;7781;49.690;6.472;2022-09-24T07:25:22;10.70;99.90
15364;DHT22;7781;49.690;6.472;2022-09-24T07:27:50;10.70;99.90
15364;DHT22;7781;49.690;6.472;2022-09-24T07:30:18;10.70;99.90
15364;DHT22;7781;49.690;6.472;2022-09-24T07:32:46;10.70;99.90
15364;DHT22;7781;49.690;6.472;2022-09-24T07:35:15;10.70;99.90
15364;DHT22;7781;49.690;6.472;2022-09-24T07:37:45;10.70;99.90
15364;DHT22;7781;49.690;6.472;2022-09-24T07:40:13;10.70;99.90
15364;DHT22;7781;49.690;6.472;2022-09-24T07:42:45;10.70;99.90
15364;DHT22;7781;49.690;6.472;2022-09-24T07:45:14;10.70;99.90
15364;DHT22;7781;49.690;6.472;2022-09-24T07:47:42;10.70;99.90
15364;DHT22;7781;49.690;6.472;2022-09-24T07:50:10;10.70;99.90
15364;DHT22;7781;49.690;6.472;2022-09-24T07:52:39;10.70;99.90
15364;DHT22;7781;49.690;6.472;2022-09-24T07:55:08;10.70;99.90
15364;DHT22;7781;49.690;6.472;2022-09-24T07:57:36;10.70;99.90
15364;DHT22;7781;49.690;6.472;2022-09-24T08:00:06;10.70;99.90
15364;DHT22;7781;49.690;6.472;2022-09-24T08:02:37;10.70;99.90
15364;DHT22;7781;49.690;6.472;2022-09-24T08:05:06;10.80;99.90
15364;DHT22;7781;49.690;6.472;2022-09-24T08:07:34;10.90;99.90
15364;DHT22;7781;49.690;6.472;2022-09-24T08:10:03;11.00;99.90
15364;DHT22;7781;49.690;6.472;2022-09-24T08:12:32;11.10;99.90
15364;DHT22;7781;49.690;6.472;2022-09-24T08:15:00;11.10;99.90
15364;DHT22;7781;49.690;6.472;2022-09-24T08:17:28;11.20;99.90
15364;DHT22;7781;49.690;6.472;2022-09-24T08:19:56;11.30;99.90
15364;DHT22;7781;49.690;6.472;2022-09-24T08:22:24;11.30;99.90
15364;DHT22;7781;49.690;6.472;2022-09-24T08:24:52;11.40;99.90
15364;DHT22;7781;49.690;6.472;2022-09-24T08:27:20;11.50;99.90
15364;DHT22;7781;49.690;6.472;2022-09-24T08:29:50;11.60;99.90
15364;DHT22;7781;49.690;6.472;2022-09-24T08:32:18;11.70;99.90
15364;DHT22;7781;49.690;6.472;2022-09-24T08:34:46;11.80;99.90
15364;DHT22;7781;49.690;6.472;2022-09-24T08:37:14;11.90;99.90
15364;DHT22;7781;49.690;6.472;2022-09-24T08:39:42;12.00;99.90
15364;DHT22;7781;49.690;6.472;2022-09-24T08:42:12;12.10;99.90
15364;DHT22;7781;49.690;6.472;2022-09-24T08:44:43;12.30;99.90
15364;DHT22;7781;49.690;6.472;2022-09-24T08:47:35;12.30;99.90
15364;DHT22;7781;49.690;6.472;2022-09-24T08:50:12;12.40;99.90
15364;DHT22;7781;49.690;6.472;2022-09-24T08:52:56;12.50;99.90
15364;DHT22;7781;49.690;6.472;2022-09-24T08:55:30;12.60;99.90
15364;DHT22;7781;49.690;6.472;2022-09-24T08:58:20;12.70;99.90
15364;DHT22;7781;49.690;6.472;2022-09-24T09:00:54;12.80;99.90
15364;DHT22;7781;49.690;6.472;2022-09-24T09:03:34;12.90;99.90
15364;DHT22;7781;49.690;6.472;2022-09-24T09:06:08;12.90;99.90
15364;DHT22;7781;49.690;6.472;2022-09-24T09:08:43;12.90;99.90
15364;DHT22;7781;49.690;6.472;2022-09-24T09:11:32;12.90;99.90
15364;DHT22;7781;49.690;6.472;2022-09-24T09:14:05;13.00;99.90
15364;DHT22;7781;49.690;6.472;2022-09-24T09:16:43;13.00;99.90
15364;DHT22;7781;49.690;6.472;2022-09-24T09:19:15;13.20;99.90
15364;DHT22;7781;49.690;6.472;2022-09-24T09:21:48;13.30;99.90
15364;DHT22;7781;49.690;6.472;2022-09-24T09:24:20;13.50;99.90
15364;DHT22;7781;49.690;6.472;2022-09-24T09:26:52;13.60;99.90
15364;DHT22;7781;49.690;6.472;2022-09-24T09:29:22;13.70;99.90
15364;DHT22;7781;49.690;6.472;2022-09-24T09:32:00;13.70;99.90
15364;DHT22;7781;49.690;6.472;2022-09-24T09:34:46;13.80;99.90
15364;DHT22;7781;49.690;6.472;2022-09-24T09:37:24;13.80;99.90
15364;DHT22;7781;49.690;6.472;2022-09-24T09:40:02;13.80;99.90
15364;DHT22;7781;49.690;6.472;2022-09-24T09:42:34;13.90;99.90
15364;DHT22;7781;49.690;6.472;2022-09-24T09:45:17;14.00;99.90
15364;DHT22;7781;49.690;6.472;2022-09-24T09:47:55;14.10;99.90
15364;DHT22;7781;49.690;6.472;2022-09-24T09:50:28;14.20;99.90
15364;DHT22;7781;49.690;6.472;2022-09-24T09:52:57;14.40;99.90
15364;DHT22;7781;49.690;6.472;2022-09-24T09:55:27;14.50;99.90
15364;DHT22;7781;49.690;6.472;2022-09-24T09:58:08;14.60;99.90
15364;DHT22;7781;49.690;6.472;2022-09-24T10:00:36;14.70;99.90
15364;DHT22;7781;49.690;6.472;2022-09-24T10:03:05;14.80;99.90
15364;DHT22;7781;49.690;6.472;2022-09-24T10:05:34;14.80;99.90
15364;DHT22;7781;49.690;6.472;2022-09-24T10:08:02;14.90;99.90
15364;DHT22;7781;49.690;6.472;2022-09-24T10:10:30;15.00;99.90
15364;DHT22;7781;49.690;6.472;2022-09-24T10:13:06;15.10;99.90
15364;DHT22;7781;49.690;6.472;2022-09-24T10:15:39;15.10;99.90
15364;DHT22;7781;49.690;6.472;2022-09-24T10:18:15;15.20;99.90
15364;DHT22;7781;49.690;6.472;2022-09-24T10:20:46;15.40;99.90
15364;DHT22;7781;49.690;6.472;2022-09-24T10:23:19;15.60;99.90
15364;DHT22;7781;49.690;6.472;2022-09-24T10:25:53;15.80;99.90
15364;DHT22;7781;49.690;6.472;2022-09-24T10:28:25;16.00;99.90
15364;DHT22;7781;49.690;6.472;2022-09-24T10:31:14;16.00;99.90
15364;DHT22;7781;49.690;6.472;2022-09-24T10:33:46;16.00;99.90
15364;DHT22;7781;49.690;6.472;2022-09-24T10:36:19;15.90;99.90
15364;DHT22;7781;49.690;6.472;2022-09-24T10:38:48;16.00;99.90
15364;DHT22;7781;49.690;6.472;2022-09-24T10:41:24;16.10;99.90
15364;DHT22;7781;49.690;6.472;2022-09-24T10:43:54;15.90;99.90
15364;DHT22;7781;49.690;6.472;2022-09-24T10:46:53;15.80;99.90
15364;DHT22;7781;49.690;6.472;2022-09-24T10:49:33;15.90;99.90
15364;DHT22;7781;49.690;6.472;2022-09-24T10:52:12;16.00;99.90
15364;DHT22;7781;49.690;6.472;2022-09-24T10:54:51;16.00;99.90
15364;DHT22;7781;49.690;6.472;2022-09-24T10:57:27;16.10;99.90
15364;DHT22;7781;49.690;6.472;2022-09-24T11:00:06;16.30;99.90
15364;DHT22;7781;49.690;6.472;2022-09-24T11:02:50;16.40;99.90
15364;DHT22;7781;49.690;6.472;2022-09-24T11:05:24;16.50;99.90
15364;DHT22;7781;49.690;6.472;2022-09-24T11:08:09;16.60;99.90
15364;DHT22;7781;49.690;6.472;2022-09-24T11:13:42;16.90;99.90
15364;DHT22;7781;49.690;6.472;2022-09-24T11:16:30;17.00;99.90
15364;DHT22;7781;49.690;6.472;2022-09-24T11:19:11;17.20;99.90
15364;DHT22;7781;49.690;6.472;2022-09-24T11:22:01;17.40;99.90
15364;DHT22;7781;49.690;6.472;2022-09-24T11:24:44;17.50;99.90
15364;DHT22;7781;49.690;6.472;2022-09-24T11:27:32;17.60;61.00
15364;DHT22;7781;49.690;6.472;2022-09-24T11:30:11;17.80;26.50
15364;DHT22;7781;49.690;6.472;2022-09-24T11:33:04;17.70;24.30
15364;DHT22;7781;49.690;6.472;2022-09-24T11:36:02;17.60;26.40
15364;DHT22;7781;49.690;6.472;2022-09-24T11:38:44;17.50;27.00
15364;DHT22;7781;49.690;6.472;2022-09-24T11:41:26;17.50;33.80
15364;DHT22;7781;49.690;6.472;2022-09-24T11:44:21;17.50;37.50
15364;DHT22;7781;49.690;6.472;2022-09-24T11:47:07;17.60;39.20
15364;DHT22;7781;49.690;6.472;2022-09-24T11:49:51;17.60;40.70
15364;DHT22;7781;49.690;6.472;2022-09-24T11:52:29;17.50;42.70
15364;DHT22;7781;49.690;6.472;2022-09-24T11:55:02;17.60;40.00
15364;DHT22;7781;49.690;6.472;2022-09-24T11:57:38;17.60;42.80
15364;DHT22;7781;49.690;6.472;2022-09-24T12:00:13;17.60;35.40
15364;DHT22;7781;49.690;6.472;2022-09-24T12:02:46;17.70;32.30
15364;DHT22;7781;49.690;6.472;2022-09-24T12:05:19;17.60;31.50
15364;DHT22;7781;49.690;6.472;2022-09-24T12:07:54;17.50;27.70
15364;DHT22;7781;49.690;6.472;2022-09-24T12:10:28;17.40;29.00
15364;DHT22;7781;49.690;6.472;2022-09-24T12:13:05;17.20;32.10
15364;DHT22;7781;49.690;6.472;2022-09-24T12:15:45;17.20;39.30
15364;DHT22;7781;49.690;6.472;2022-09-24T12:18:19;17.20;38.90
15364;DHT22;7781;49.690;6.472;2022-09-24T12:20:51;17.10;41.70
15364;DHT22;7781;49.690;6.472;2022-09-24T12:23:23;17.00;44.70
15364;DHT22;7781;49.690;6.472;2022-09-24T12:25:56;16.90;49.40
15364;DHT22;7781;49.690;6.472;2022-09-24T12:28:31;16.90;47.60
15364;DHT22;7781;49.690;6.472;2022-09-24T12:31:24;16.80;52.10
15364;DHT22;7781;49.690;6.472;2022-09-24T12:34:17;16.80;54.30
15364;DHT22;7781;49.690;6.472;2022-09-24T12:36:56;16.70;57.10
15364;DHT22;7781;49.690;6.472;2022-09-24T12:39:28;16.70;60.00
15364;DHT22;7781;49.690;6.472;2022-09-24T12:42:00;16.70;67.70
15364;DHT22;7781;49.690;6.472;2022-09-24T12:44:36;16.70;64.60
15364;DHT22;7781;49.690;6.472;2022-09-24T12:47:16;16.80;62.40
15364;DHT22;7781;49.690;6.472;2022-09-24T12:49:49;16.80;64.60
15364;DHT22;7781;49.690;6.472;2022-09-24T12:52:24;16.80;71.60
15364;DHT22;7781;49.690;6.472;2022-09-24T12:55:00;16.70;91.10
15364;DHT22;7781;49.690;6.472;2022-09-24T12:57:33;16.70;99.90
15364;DHT22;7781;49.690;6.472;2022-09-24T13:00:31;16.60;99.90
15364;DHT22;7781;49.690;6.472;2022-09-24T13:02:54;16.70;99.90
15364;DHT22;7781;49.690;6.472;2022-09-24T13:05:27;16.50;99.00
15364;DHT22;7781;49.690;6.472;2022-09-24T13:08:00;16.40;99.90
15364;DHT22;7781;49.690;6.472;2022-09-24T13:10:30;16.30;99.90
15364;DHT22;7781;49.690;6.472;2022-09-24T13:12:59;16.40;99.90
15364;DHT22;7781;49.690;6.472;2022-09-24T13:15:34;16.30;99.90
15364;DHT22;7781;49.690;6.472;2022-09-24T13:18:18;16.40;99.90
15364;DHT22;7781;49.690;6.472;2022-09-24T13:20:57;16.40;99.90
15364;DHT22;7781;49.690;6.472;2022-09-24T13:26:26;16.40;99.90
15364;DHT22;7781;49.690;6.472;2022-09-24T13:28:55;16.30;99.90
15364;DHT22;7781;49.690;6.472;2022-09-24T13:31:38;16.30;99.90
15364;DHT22;7781;49.690;6.472;2022-09-24T13:34:16;16.20;99.90
15364;DHT22;7781;49.690;6.472;2022-09-24T13:36:48;16.10;99.90
15364;DHT22;7781;49.690;6.472;2022-09-24T13:39:21;16.00;99.90
15364;DHT22;7781;49.690;6.472;2022-09-24T13:41:57;16.00;99.90
15364;DHT22;7781;49.690;6.472;2022-09-24T13:44:32;16.10;99.90
15364;DHT22;7781;49.690;6.472;2022-09-24T13:47:05;16.00;99.90
15364;DHT22;7781;49.690;6.472;2022-09-24T13:49:41;16.00;99.90
15364;DHT22;7781;49.690;6.472;2022-09-24T13:52:17;16.00;99.90
15364;DHT22;7781;49.690;6.472;2022-09-24T13:54:55;16.00;99.90
15364;DHT22;7781;49.690;6.472;2022-09-24T13:57:26;16.00;99.90
15364;DHT22;7781;49.690;6.472;2022-09-24T14:00:13;16.00;99.90
15364;DHT22;7781;49.690;6.472;2022-09-24T14:02:52;16.00;99.90
15364;DHT22;7781;49.690;6.472;2022-09-24T14:05:21;16.00;99.90
15364;DHT22;7781;49.690;6.472;2022-09-24T14:07:59;16.00;99.90
15364;DHT22;7781;49.690;6.472;2022-09-24T14:10:28;16.00;99.90
15364;DHT22;7781;49.690;6.472;2022-09-24T14:13:00;15.90;99.90
15364;DHT22;7781;49.690;6.472;2022-09-24T14:15:29;15.80;99.90
15364;DHT22;7781;49.690;6.472;2022-09-24T14:17:58;15.80;99.90
15364;DHT22;7781;49.690;6.472;2022-09-24T14:20:29;15.80;99.90
15364;DHT22;7781;49.690;6.472;2022-09-24T14:22:57;15.80;99.90
15364;DHT22;7781;49.690;6.472;2022-09-24T14:25:27;15.80;99.90
15364;DHT22;7781;49.690;6.472;2022-09-24T14:27:58;15.80;99.90
15364;DHT22;7781;49.690;6.472;2022-09-24T14:30:29;15.80;99.90
15364;DHT22;7781;49.690;6.472;2022-09-24T14:33:02;15.80;99.90
15364;DHT22;7781;49.690;6.472;2022-09-24T14:35:31;15.80;99.90
15364;DHT22;7781;49.690;6.472;2022-09-24T14:38:02;15.80;99.90
15364;DHT22;7781;49.690;6.472;2022-09-24T14:40:39;15.80;99.90
15364;DHT22;7781;49.690;6.472;2022-09-24T14:43:16;15.80;99.90
15364;DHT22;7781;49.690;6.472;2022-09-24T14:45:45;15.80;99.90
15364;DHT22;7781;49.690;6.472;2022-09-24T14:48:24;15.90;99.90
15364;DHT22;7781;49.690;6.472;2022-09-24T14:50:54;15.90;99.90
15364;DHT22;7781;49.690;6.472;2022-09-24T14:53:24;15.90;99.90
15364;DHT22;7781;49.690;6.472;2022-09-24T14:55:53;15.90;99.90
15364;DHT22;7781;49.690;6.472;2022-09-24T14:58:31;16.00;99.90
15364;DHT22;7781;49.690;6.472;2022-09-24T15:01:02;16.00;99.90
15364;DHT22;7781;49.690;6.472;2022-09-24T15:03:37;16.10;99.90
15364;DHT22;7781;49.690;6.472;2022-09-24T15:06:15;16.10;99.90
15364;DHT22;7781;49.690;6.472;2022-09-24T15:08:55;16.20;99.90
15364;DHT22;7781;49.690;6.472;2022-09-24T15:11:26;16.20;99.90
15364;DHT22;7781;49.690;6.472;2022-09-24T15:13:58;16.20;99.90
15364;DHT22;7781;49.690;6.472;2022-09-24T15:16:29;16.20;99.90
15364;DHT22;7781;49.690;6.472;2022-09-24T15:19:13;16.20;99.90
15364;DHT22;7781;49.690;6.472;2022-09-24T15:21:42;16.20;99.90
15364;DHT22;7781;49.690;6.472;2022-09-24T15:24:10;16.20;99.90
15364;DHT22;7781;49.690;6.472;2022-09-24T15:26:40;16.20;99.90
15364;DHT22;7781;49.690;6.472;2022-09-24T15:29:16;16.20;99.90
15364;DHT22;7781;49.690;6.472;2022-09-24T15:31:45;16.10;97.70
15364;DHT22;7781;49.690;6.472;2022-09-24T15:34:15;16.00;99.90
15364;DHT22;7781;49.690;6.472;2022-09-24T15:36:46;16.00;99.90
15364;DHT22;7781;49.690;6.472;2022-09-24T15:39:15;15.90;99.90
15364;DHT22;7781;49.690;6.472;2022-09-24T15:41:44;15.80;97.90
15364;DHT22;7781;49.690;6.472;2022-09-24T15:44:18;15.90;99.90
15364;DHT22;7781;49.690;6.472;2022-09-24T15:46:48;15.70;92.30
15364;DHT22;7781;49.690;6.472;2022-09-24T15:49:18;15.60;95.10
15364;DHT22;7781;49.690;6.472;2022-09-24T15:51:49;15.50;99.20
15364;DHT22;7781;49.690;6.472;2022-09-24T15:54:18;15.30;99.90
15364;DHT22;7781;49.690;6.472;2022-09-24T15:56:47;15.30;99.90
15364;DHT22;7781;49.690;6.472;2022-09-24T15:59:18;15.10;99.90
15364;DHT22;7781;49.690;6.472;2022-09-24T16:01:48;15.00;99.90
15364;DHT22;7781;49.690;6.472;2022-09-24T16:04:18;14.90;99.90
15364;DHT22;7781;49.690;6.472;2022-09-24T16:06:46;14.80;99.90
15364;DHT22;7781;49.690;6.472;2022-09-24T16:09:15;14.60;99.90
15364;DHT22;7781;49.690;6.472;2022-09-24T16:11:43;14.40;99.90
15364;DHT22;7781;49.690;6.472;2022-09-24T16:14:12;14.30;99.90
15364;DHT22;7781;49.690;6.472;2022-09-24T16:16:40;14.10;99.90
15364;DHT22;7781;49.690;6.472;2022-09-24T16:19:08;13.90;99.90
15364;DHT22;7781;49.690;6.472;2022-09-24T16:21:37;13.90;99.90
15364;DHT22;7781;49.690;6.472;2022-09-24T16:24:05;13.90;99.90
15364;DHT22;7781;49.690;6.472;2022-09-24T16:26:33;13.80;99.90
15364;DHT22;7781;49.690;6.472;2022-09-24T16:29:03;13.90;99.90
15364;DHT22;7781;49.690;6.472;2022-09-24T16:31:32;13.80;99.90
15364;DHT22;7781;49.690;6.472;2022-09-24T16:34:00;13.70;99.90